sensor_id;sensor_type;location;lat;lon;timestamp;P1;durP1;ratioP1;P2;durP2;ratioP2
13785;SDS011;47474;48.824;9.384;2023-08-12T02:26:15;5.53;;;4.07;;
13785;SDS011;47474;48.824;9.384;2023-08-12T02:28:41;5.07;;;4.65;;
13785;SDS011;47474;48.824;9.384;2023-08-12T02:31:08;4.45;;;4.05;;
13785;SDS011;47474;48.824;9.384;2023-08-12T02:33:35;5.78;;;4.30;;
13785;SDS011;47474;48.824;9.384;2023-08-12T02:36:02;7.32;;;4.78;;
13785;SDS011;47474;48.824;9.384;2023-08-12T02:38:29;4.75;;;4.30;;
13785;SDS011;47474;48.824;9.384;2023-08-12T02:40:56;4.95;;;4.55;;
13785;SDS011;47474;48.824;9.384;2023-08-12T02:43:24;5.30;;;4.35;;
13785;SDS011;47474;48.824;9.384;2023-08-12T02:45:50;7.88;;;5.22;;
13785;SDS011;47474;48.824;9.384;2023-08-12T02:48:17;5.93;;;5.05;;
13785;SDS011;47474;48.824;9.384;2023-08-12T02:50:44;5.03;;;4.53;;
13785;SDS011;47474;48.824;9.384;2023-08-12T02:53:10;6.93;;;4.53;;
13785;SDS011;47474;48.824;9.384;2023-08-12T02:55:37;4.50;;;4.10;;
13785;SDS011;47474;48.824;9.384;2023-08-12T02:58:04;4.95;;;4.45;;
13785;SDS011;47474;48.824;9.384;2023-08-12T03:00:32;4.80;;;4.25;;
13785;SDS011;47474;48.824;9.384;2023-08-12T03:02:58;4.82;;;4.35;;
13785;SDS011;47474;48.824;9.384;2023-08-12T03:05:25;4.22;;;3.92;;
13785;SDS011;47474;48.824;9.384;2023-08-12T03:07:52;5.45;;;4.18;;
13785;SDS011;47474;48.824;9.384;2023-08-12T03:10:19;5.45;;;4.45;;
13785;SDS011;47474;48.824;9.384;2023-08-12T03:12:46;5.05;;;4.65;;
13785;SDS011;47474;48.824;9.384;2023-08-12T03:15:12;5.80;;;4.45;;
13785;SDS011;47474;48.824;9.384;2023-08-12T03:17:40;5.30;;;4.60;;
13785;SDS011;47474;48.824;9.384;2023-08-12T03:20:07;5.85;;;3.80;;
13785;SDS011;47474;48.824;9.384;2023-08-12T03:22:35;4.80;;;4.30;;
13785;SDS011;47474;48.824;9.384;2023-08-12T03:25:02;4.78;;;4.35;;
13785;SDS011;47474;48.824;9.384;2023-08-12T03:27:29;4.97;;;4.50;;
13785;SDS011;47474;48.824;9.384;2023-08-12T03:29:55;4.95;;;4.00;;
13785;SDS011;47474;48.824;9.384;2023-08-12T03:32:22;4.35;;;3.95;;
13785;SDS011;47474;48.824;9.384;2023-08-12T03:34:50;4.80;;;4.40;;
13785;SDS011;47474;48.824;9.384;2023-08-12T03:37:17;5.30;;;4.78;;
13785;SDS011;47474;48.824;9.384;2023-08-12T03:39:44;4.90;;;4.30;;
13785;SDS011;47474;48.824;9.384;2023-08-12T03:42:11;8.55;;;4.95;;
13785;SDS011;47474;48.824;9.384;2023-08-12T03:44:37;7.00;;;4.90;;
13785;SDS011;47474;48.824;9.384;2023-08-12T03:47:04;4.80;;;4.13;;
13785;SDS011;47474;48.824;9.384;2023-08-12T03:49:31;6.95;;;4.00;;
13785;SDS011;47474;48.824;9.384;2023-08-12T03:51:59;5.18;;;4.30;;
13785;SDS011;47474;48.824;9.384;2023-08-12T03:54:25;4.50;;;4.10;;
13785;SDS011;47474;48.824;9.384;2023-08-12T03:56:52;7.20;;;4.60;;
13785;SDS011;47474;48.824;9.384;2023-08-12T03:59:19;4.72;;;4.20;;
13785;SDS011;47474;48.824;9.384;2023-08-12T04:01:48;5.22;;;4.57;;
13785;SDS011;47474;48.824;9.384;2023-08-12T04:04:16;4.28;;;3.97;;
13785;SDS011;47474;48.824;9.384;2023-08-12T04:06:43;4.60;;;4.10;;
13785;SDS011;47474;48.824;9.384;2023-08-12T04:09:11;4.85;;;4.43;;
13785;SDS011;47474;48.824;9.384;2023-08-12T04:11:38;5.57;;;4.28;;
13785;SDS011;47474;48.824;9.384;2023-08-12T04:14:05;4.47;;;4.05;;
13785;SDS011;47474;48.824;9.384;2023-08-12T04:16:31;4.45;;;4.05;;
13785;SDS011;47474;48.824;9.384;2023-08-12T04:18:58;6.15;;;4.10;;
13785;SDS011;47474;48.824;9.384;2023-08-12T04:21:25;4.78;;;4.38;;
13785;SDS011;47474;48.824;9.384;2023-08-12T04:23:52;5.70;;;5.20;;
13785;SDS011;47474;48.824;9.384;2023-08-12T04:26:20;4.93;;;4.28;;
13785;SDS011;47474;48.824;9.384;2023-08-12T04:28:47;4.78;;;4.35;;
13785;SDS011;47474;48.824;9.384;2023-08-12T04:31:14;4.78;;;4.28;;
13785;SDS011;47474;48.824;9.384;2023-08-12T04:33:41;6.63;;;4.65;;
13785;SDS011;47474;48.824;9.384;2023-08-12T04:36:07;4.03;;;3.65;;
13785;SDS011;47474;48.824;9.384;2023-08-12T04:38:36;4.68;;;4.18;;
13785;SDS011;47474;48.824;9.384;2023-08-12T04:41:04;4.85;;;4.45;;
13785;SDS011;47474;48.824;9.384;2023-08-12T04:43:32;4.70;;;4.10;;
13785;SDS011;47474;48.824;9.384;2023-08-12T04:45:59;4.90;;;4.50;;
13785;SDS011;47474;48.824;9.384;2023-08-12T04:48:30;4.15;;;3.60;;
13785;SDS011;47474;48.824;9.384;2023-08-12T04:50:57;4.40;;;4.00;;
13785;SDS011;47474;48.824;9.384;2023-08-12T04:53:26;4.78;;;4.30;;
13785;SDS011;47474;48.824;9.384;2023-08-12T04:55:54;4.55;;;3.95;;
13785;SDS011;47474;48.824;9.384;2023-08-12T04:58:21;7.40;;;4.78;;
13785;SDS011;47474;48.824;9.384;2023-08-12T05:00:49;3.88;;;3.58;;
13785;SDS011;47474;48.824;9.384;2023-08-12T05:03:17;4.63;;;4.22;;
13785;SDS011;47474;48.824;9.384;2023-08-12T05:05:43;5.03;;;4.53;;
13785;SDS011;47474;48.824;9.384;2023-08-12T05:08:15;4.32;;;4.03;;
13785;SDS011;47474;48.824;9.384;2023-08-12T05:10:41;4.90;;;4.50;;
13785;SDS011;47474;48.824;9.384;2023-08-12T05:13:08;4.95;;;4.25;;
13785;SDS011;47474;48.824;9.384;2023-08-12T05:15:35;4.22;;;3.88;;
13785;SDS011;47474;48.824;9.384;2023-08-12T05:18:03;5.13;;;4.50;;
13785;SDS011;47474;48.824;9.384;2023-08-12T05:20:31;5.00;;;4.60;;
13785;SDS011;47474;48.824;9.384;2023-08-12T05:22:57;4.65;;;4.25;;
13785;SDS011;47474;48.824;9.384;2023-08-12T05:25:25;5.70;;;4.45;;
13785;SDS011;47474;48.824;9.384;2023-08-12T05:27:52;4.95;;;4.45;;
13785;SDS011;47474;48.824;9.384;2023-08-12T05:30:19;4.50;;;4.10;;
13785;SDS011;47474;48.824;9.384;2023-08-12T05:32:45;4.90;;;4.40;;
13785;SDS011;47474;48.824;9.384;2023-08-12T05:35:13;6.90;;;4.60;;
13785;SDS011;47474;48.824;9.384;2023-08-12T05:37:40;6.50;;;4.57;;
13785;SDS011;47474;48.824;9.384;2023-08-12T05:40:08;5.93;;;4.35;;
13785;SDS011;47474;48.824;9.384;2023-08-12T05:42:35;7.00;;;4.55;;
13785;SDS011;47474;48.824;9.384;2023-08-12T05:45:02;8.02;;;5.13;;
13785;SDS011;47474;48.824;9.384;2023-08-12T05:47:29;5.30;;;4.80;;
13785;SDS011;47474;48.824;9.384;2023-08-12T05:49:57;4.80;;;4.40;;
13785;SDS011;47474;48.824;9.384;2023-08-12T05:52:25;4.80;;;4.40;;
13785;SDS011;47474;48.824;9.384;2023-08-12T05:54:52;5.32;;;4.70;;
13785;SDS011;47474;48.824;9.384;2023-08-12T05:57:19;6.13;;;4.53;;
13785;SDS011;47474;48.824;9.384;2023-08-12T05:59:45;5.50;;;4.90;;
13785;SDS011;47474;48.824;9.384;2023-08-12T06:02:12;8.55;;;5.60;;
13785;SDS011;47474;48.824;9.384;2023-08-12T06:04:39;5.18;;;4.68;;
13785;SDS011;47474;48.824;9.384;2023-08-12T06:07:05;5.35;;;4.80;;
13785;SDS011;47474;48.824;9.384;2023-08-12T06:09:33;7.75;;;4.45;;
13785;SDS011;47474;48.824;9.384;2023-08-12T06:12:00;10.50;;;5.45;;
13785;SDS011;47474;48.824;9.384;2023-08-12T06:14:26;6.00;;;4.68;;
13785;SDS011;47474;48.824;9.384;2023-08-12T06:16:54;5.55;;;4.90;;
13785;SDS011;47474;48.824;9.384;2023-08-12T06:19:20;5.38;;;4.60;;
13785;SDS011;47474;48.824;9.384;2023-08-12T06:21:47;5.40;;;4.85;;
13785;SDS011;47474;48.824;9.384;2023-08-12T06:24:13;7.35;;;5.70;;
13785;SDS011;47474;48.824;9.384;2023-08-12T06:26:41;6.93;;;5.03;;
13785;SDS011;47474;48.824;9.384;2023-08-12T06:29:08;6.05;;;4.88;;
13785;SDS011;47474;48.824;9.384;2023-08-12T06:31:35;5.47;;;4.85;;
13785;SDS011;47474;48.824;9.384;2023-08-12T06:34:01;5.45;;;4.90;;
13785;SDS011;47474;48.824;9.384;2023-08-12T06:36:28;5.00;;;4.60;;
13785;SDS011;47474;48.824;9.384;2023-08-12T06:38:55;5.55;;;5.05;;
13785;SDS011;47474;48.824;9.384;2023-08-12T06:41:21;5.20;;;4.70;;
13785;SDS011;47474;48.824;9.384;2023-08-12T06:43:49;5.45;;;4.95;;
13785;SDS011;47474;48.824;9.384;2023-08-12T06:46:16;5.63;;;4.93;;
13785;SDS011;47474;48.824;9.384;2023-08-12T06:48:42;5.20;;;4.65;;
13785;SDS011;47474;48.824;9.384;2023-08-12T06:51:09;5.60;;;4.95;;
13785;SDS011;47474;48.824;9.384;2023-08-12T06:53:36;5.93;;;5.07;;
13785;SDS011;47474;48.824;9.384;2023-08-12T06:56:03;7.03;;;5.03;;
13785;SDS011;47474;48.824;9.384;2023-08-12T06:58:30;7.80;;;5.20;;
13785;SDS011;47474;48.824;9.384;2023-08-12T07:00:58;5.45;;;4.82;;
13785;SDS011;47474;48.824;9.384;2023-08-12T07:03:25;5.80;;;5.22;;
13785;SDS011;47474;48.824;9.384;2023-08-12T07:05:52;5.72;;;5.07;;
13785;SDS011;47474;48.824;9.384;2023-08-12T07:08:18;5.43;;;4.97;;
13785;SDS011;47474;48.824;9.384;2023-08-12T07:10:45;5.10;;;4.70;;
13785;SDS011;47474;48.824;9.384;2023-08-12T07:13:11;5.80;;;5.07;;
13785;SDS011;47474;48.824;9.384;2023-08-12T07:15:38;4.93;;;4.53;;
13785;SDS011;47474;48.824;9.384;2023-08-12T07:18:06;4.97;;;4.53;;
13785;SDS011;47474;48.824;9.384;2023-08-12T07:20:33;4.85;;;4.45;;
13785;SDS011;47474;48.824;9.384;2023-08-12T07:22:59;5.47;;;4.97;;
13785;SDS011;47474;48.824;9.384;2023-08-12T07:25:26;5.38;;;4.88;;
13785;SDS011;47474;48.824;9.384;2023-08-12T07:27:52;6.80;;;4.90;;
13785;SDS011;47474;48.824;9.384;2023-08-12T07:30:19;5.07;;;4.43;;
13785;SDS011;47474;48.824;9.384;2023-08-12T07:32:45;6.43;;;4.70;;
13785;SDS011;47474;48.824;9.384;2023-08-12T07:35:13;6.05;;;4.90;;
13785;SDS011;47474;48.824;9.384;2023-08-12T07:37:40;6.40;;;4.65;;
13785;SDS011;47474;48.824;9.384;2023-08-12T07:40:07;4.85;;;4.38;;
13785;SDS011;47474;48.824;9.384;2023-08-12T07:42:35;5.22;;;4.72;;
13785;SDS011;47474;48.824;9.384;2023-08-12T07:45:01;5.25;;;4.72;;
13785;SDS011;47474;48.824;9.384;2023-08-12T07:57:12;4.80;;;4.38;;
13785;SDS011;47474;48.824;9.384;2023-08-12T07:59:39;5.43;;;4.35;;
13785;SDS011;47474;48.824;9.384;2023-08-12T08:02:05;4.38;;;3.70;;
13785;SDS011;47474;48.824;9.384;2023-08-12T08:13:57;5.85;;;4.65;;
13785;SDS011;47474;48.824;9.384;2023-08-12T08:22:25;4.50;;;4.00;;
13785;SDS011;47474;48.824;9.384;2023-08-12T08:25:01;5.15;;;4.75;;
13785;SDS011;47474;48.824;9.384;2023-08-12T08:27:38;4.45;;;4.10;;
13785;SDS011;47474;48.824;9.384;2023-08-12T08:30:11;5.93;;;4.45;;
13785;SDS011;47474;48.824;9.384;2023-08-12T08:32:40;4.50;;;4.00;;
13785;SDS011;47474;48.824;9.384;2023-08-12T08:38:00;4.68;;;4.20;;
13785;SDS011;47474;48.824;9.384;2023-08-12T08:40:34;6.03;;;4.63;;
13785;SDS011;47474;48.824;9.384;2023-08-12T08:43:06;4.65;;;4.25;;
13785;SDS011;47474;48.824;9.384;2023-08-12T08:45:35;4.15;;;3.75;;
13785;SDS011;47474;48.824;9.384;2023-08-12T08:48:03;8.02;;;4.40;;
13785;SDS011;47474;48.824;9.384;2023-08-12T08:50:31;4.60;;;4.07;;
13785;SDS011;47474;48.824;9.384;2023-08-12T08:52:58;5.03;;;4.13;;
13785;SDS011;47474;48.824;9.384;2023-08-12T08:55:26;4.35;;;3.97;;
13785;SDS011;47474;48.824;9.384;2023-08-12T08:57:52;4.63;;;4.22;;
13785;SDS011;47474;48.824;9.384;2023-08-12T09:00:20;5.35;;;4.85;;
13785;SDS011;47474;48.824;9.384;2023-08-12T09:02:48;4.78;;;4.35;;
13785;SDS011;47474;48.824;9.384;2023-08-12T09:05:15;5.05;;;4.03;;
13785;SDS011;47474;48.824;9.384;2023-08-12T09:07:43;4.40;;;3.70;;
13785;SDS011;47474;48.824;9.384;2023-08-12T09:10:10;4.38;;;4.05;;
13785;SDS011;47474;48.824;9.384;2023-08-12T09:12:37;5.97;;;4.55;;
13785;SDS011;47474;48.824;9.384;2023-08-12T09:15:04;4.47;;;4.07;;
13785;SDS011;47474;48.824;9.384;2023-08-12T09:17:32;4.78;;;4.38;;
13785;SDS011;47474;48.824;9.384;2023-08-12T09:20:00;5.45;;;4.50;;
13785;SDS011;47474;48.824;9.384;2023-08-12T09:22:28;4.40;;;4.00;;
13785;SDS011;47474;48.824;9.384;2023-08-12T09:24:56;4.55;;;4.10;;
13785;SDS011;47474;48.824;9.384;2023-08-12T09:27:23;8.35;;;3.65;;
13785;SDS011;47474;48.824;9.384;2023-08-12T09:29:51;4.82;;;4.10;;
13785;SDS011;47474;48.824;9.384;2023-08-12T09:32:21;6.78;;;4.32;;
13785;SDS011;47474;48.824;9.384;2023-08-12T09:34:49;4.53;;;3.80;;
13785;SDS011;47474;48.824;9.384;2023-08-12T09:37:18;9.50;;;4.03;;
13785;SDS011;47474;48.824;9.384;2023-08-12T09:39:46;4.75;;;4.35;;
13785;SDS011;47474;48.824;9.384;2023-08-12T09:42:13;4.20;;;3.80;;
13785;SDS011;47474;48.824;9.384;2023-08-12T09:44:40;3.80;;;3.50;;
13785;SDS011;47474;48.824;9.384;2023-08-12T09:47:07;5.35;;;3.78;;
13785;SDS011;47474;48.824;9.384;2023-08-12T09:49:34;4.85;;;3.85;;
13785;SDS011;47474;48.824;9.384;2023-08-12T09:52:01;6.03;;;4.10;;
13785;SDS011;47474;48.824;9.384;2023-08-12T09:54:29;4.22;;;3.53;;
13785;SDS011;47474;48.824;9.384;2023-08-12T09:56:58;6.15;;;4.20;;
13785;SDS011;47474;48.824;9.384;2023-08-12T09:59:27;4.10;;;3.70;;
13785;SDS011;47474;48.824;9.384;2023-08-12T10:01:56;3.40;;;3.10;;
13785;SDS011;47474;48.824;9.384;2023-08-12T10:04:23;3.90;;;3.55;;
13785;SDS011;47474;48.824;9.384;2023-08-12T10:06:55;4.03;;;3.65;;
13785;SDS011;47474;48.824;9.384;2023-08-12T10:09:21;5.47;;;3.65;;
13785;SDS011;47474;48.824;9.384;2023-08-12T10:11:51;3.70;;;3.28;;
13785;SDS011;47474;48.824;9.384;2023-08-12T10:14:18;5.18;;;3.50;;
13785;SDS011;47474;48.824;9.384;2023-08-12T10:16:46;3.15;;;2.85;;
13785;SDS011;47474;48.824;9.384;2023-08-12T10:19:12;4.63;;;3.38;;
13785;SDS011;47474;48.824;9.384;2023-08-12T10:21:42;5.00;;;3.65;;
13785;SDS011;47474;48.824;9.384;2023-08-12T10:24:10;3.72;;;3.10;;
13785;SDS011;47474;48.824;9.384;2023-08-12T10:26:39;3.30;;;3.00;;
13785;SDS011;47474;48.824;9.384;2023-08-12T10:29:07;4.95;;;3.60;;
13785;SDS011;47474;48.824;9.384;2023-08-12T10:31:34;5.53;;;4.20;;
13785;SDS011;47474;48.824;9.384;2023-08-12T10:34:01;3.05;;;2.70;;
13785;SDS011;47474;48.824;9.384;2023-08-12T10:36:28;3.47;;;3.10;;
13785;SDS011;47474;48.824;9.384;2023-08-12T10:38:55;3.83;;;3.22;;
13785;SDS011;47474;48.824;9.384;2023-08-12T10:41:23;3.03;;;2.80;;
13785;SDS011;47474;48.824;9.384;2023-08-12T10:43:53;4.40;;;3.58;;
13785;SDS011;47474;48.824;9.384;2023-08-12T10:46:30;3.85;;;2.70;;
13785;SDS011;47474;48.824;9.384;2023-08-12T10:49:04;3.17;;;2.88;;
13785;SDS011;47474;48.824;9.384;2023-08-12T10:51:41;3.38;;;3.08;;
13785;SDS011;47474;48.824;9.384;2023-08-12T10:54:21;3.83;;;3.30;;
13785;SDS011;47474;48.824;9.384;2023-08-12T10:57:07;3.22;;;2.92;;
13785;SDS011;47474;48.824;9.384;2023-08-12T10:59:54;3.88;;;3.00;;
13785;SDS011;47474;48.824;9.384;2023-08-12T11:02:34;3.55;;;3.25;;
13785;SDS011;47474;48.824;9.384;2023-08-12T11:05:08;4.57;;;3.65;;
13785;SDS011;47474;48.824;9.384;2023-08-12T11:07:41;3.78;;;3.47;;
13785;SDS011;47474;48.824;9.384;2023-08-12T11:10:18;3.40;;;3.15;;
13785;SDS011;47474;48.824;9.384;2023-08-12T11:13:08;4.95;;;3.28;;
13785;SDS011;47474;48.824;9.384;2023-08-12T11:15:47;3.95;;;3.20;;
13785;SDS011;47474;48.824;9.384;2023-08-12T11:18:17;6.53;;;2.90;;
13785;SDS011;47474;48.824;9.384;2023-08-12T11:20:45;4.03;;;2.70;;
13785;SDS011;47474;48.824;9.384;2023-08-12T11:23:14;3.15;;;2.83;;
13785;SDS011;47474;48.824;9.384;2023-08-12T11:25:45;4.38;;;3.00;;
13785;SDS011;47474;48.824;9.384;2023-08-12T11:28:15;3.67;;;2.80;;
13785;SDS011;47474;48.824;9.384;2023-08-12T11:30:43;3.85;;;2.67;;
13785;SDS011;47474;48.824;9.384;2023-08-12T11:33:15;3.38;;;3.08;;
13785;SDS011;47474;48.824;9.384;2023-08-12T11:36:10;3.63;;;2.95;;
13785;SDS011;47474;48.824;9.384;2023-08-12T11:38:47;3.10;;;2.80;;
13785;SDS011;47474;48.824;9.384;2023-08-12T11:41:31;5.28;;;2.85;;
13785;SDS011;47474;48.824;9.384;2023-08-12T11:44:03;3.60;;;2.60;;
13785;SDS011;47474;48.824;9.384;2023-08-12T11:46:52;2.60;;;2.40;;
13785;SDS011;47474;48.824;9.384;2023-08-12T11:49:23;2.67;;;2.47;;
13785;SDS011;47474;48.824;9.384;2023-08-12T11:51:56;3.40;;;2.78;;
13785;SDS011;47474;48.824;9.384;2023-08-12T11:54:27;3.28;;;2.45;;
13785;SDS011;47474;48.824;9.384;2023-08-12T11:56:58;3.63;;;3.22;;
13785;SDS011;47474;48.824;9.384;2023-08-12T11:59:31;4.00;;;2.83;;
13785;SDS011;47474;48.824;9.384;2023-08-12T12:02:01;2.88;;;2.55;;
13785;SDS011;47474;48.824;9.384;2023-08-12T12:04:29;3.63;;;2.60;;
13785;SDS011;47474;48.824;9.384;2023-08-12T12:06:57;3.90;;;3.25;;
13785;SDS011;47474;48.824;9.384;2023-08-12T12:09:24;3.72;;;2.88;;
13785;SDS011;47474;48.824;9.384;2023-08-12T12:11:52;5.13;;;3.28;;
13785;SDS011;47474;48.824;9.384;2023-08-12T12:14:19;6.15;;;3.17;;
13785;SDS011;47474;48.824;9.384;2023-08-12T12:16:48;5.60;;;2.92;;
13785;SDS011;47474;48.824;9.384;2023-08-12T12:19:16;4.57;;;2.30;;
13785;SDS011;47474;48.824;9.384;2023-08-12T12:21:46;3.28;;;2.08;;
13785;SDS011;47474;48.824;9.384;2023-08-12T12:24:13;5.78;;;3.08;;
13785;SDS011;47474;48.824;9.384;2023-08-12T12:26:40;4.70;;;2.45;;
13785;SDS011;47474;48.824;9.384;2023-08-12T12:29:10;3.42;;;2.42;;
13785;SDS011;47474;48.824;9.384;2023-08-12T12:31:45;4.78;;;2.67;;
13785;SDS011;47474;48.824;9.384;2023-08-12T12:34:25;4.07;;;3.15;;
13785;SDS011;47474;48.824;9.384;2023-08-12T12:37:19;15.18;;;4.97;;
13785;SDS011;47474;48.824;9.384;2023-08-12T12:39:50;7.07;;;3.45;;
13785;SDS011;47474;48.824;9.384;2023-08-12T12:42:16;8.77;;;3.55;;
13785;SDS011;47474;48.824;9.384;2023-08-12T12:44:45;3.95;;;3.10;;
13785;SDS011;47474;48.824;9.384;2023-08-12T12:47:14;4.82;;;3.40;;
13785;SDS011;47474;48.824;9.384;2023-08-12T12:49:41;3.75;;;2.90;;
13785;SDS011;47474;48.824;9.384;2023-08-12T12:52:08;6.05;;;3.50;;
13785;SDS011;47474;48.824;9.384;2023-08-12T12:54:36;3.30;;;3.00;;
13785;SDS011;47474;48.824;9.384;2023-08-12T12:57:03;7.45;;;3.38;;
13785;SDS011;47474;48.824;9.384;2023-08-12T12:59:29;5.97;;;3.17;;
13785;SDS011;47474;48.824;9.384;2023-08-12T13:01:56;4.05;;;3.08;;
13785;SDS011;47474;48.824;9.384;2023-08-12T13:04:23;5.20;;;3.75;;
13785;SDS011;47474;48.824;9.384;2023-08-12T13:06:50;4.90;;;3.72;;
13785;SDS011;47474;48.824;9.384;2023-08-12T13:09:16;4.07;;;3.40;;
13785;SDS011;47474;48.824;9.384;2023-08-12T13:11:44;5.90;;;3.88;;
13785;SDS011;47474;48.824;9.384;2023-08-12T13:14:11;5.45;;;3.38;;
13785;SDS011;47474;48.824;9.384;2023-08-12T13:16:38;3.92;;;3.50;;
13785;SDS011;47474;48.824;9.384;2023-08-12T13:19:04;3.65;;;3.35;;
13785;SDS011;47474;48.824;9.384;2023-08-12T13:21:31;6.20;;;4.30;;
13785;SDS011;47474;48.824;9.384;2023-08-12T13:23:58;6.63;;;3.85;;
13785;SDS011;47474;48.824;9.384;2023-08-12T13:26:26;6.97;;;4.22;;
13785;SDS011;47474;48.824;9.384;2023-08-12T13:28:54;5.32;;;4.10;;
13785;SDS011;47474;48.824;9.384;2023-08-12T13:31:21;5.50;;;4.45;;
13785;SDS011;47474;48.824;9.384;2023-08-12T13:33:47;4.43;;;4.03;;
13785;SDS011;47474;48.824;9.384;2023-08-12T13:36:14;4.68;;;4.15;;
13785;SDS011;47474;48.824;9.384;2023-08-12T13:38:41;7.22;;;4.22;;
13785;SDS011;47474;48.824;9.384;2023-08-12T13:41:07;6.30;;;4.53;;
13785;SDS011;47474;48.824;9.384;2023-08-12T13:43:34;6.93;;;4.80;;
13785;SDS011;47474;48.824;9.384;2023-08-12T13:46:02;7.28;;;4.38;;
13785;SDS011;47474;48.824;9.384;2023-08-12T13:48:29;5.03;;;4.53;;
13785;SDS011;47474;48.824;9.384;2023-08-12T13:50:55;6.00;;;4.80;;
13785;SDS011;47474;48.824;9.384;2023-08-12T13:53:22;6.13;;;4.82;;
13785;SDS011;47474;48.824;9.384;2023-08-12T13:55:50;4.80;;;4.40;;
13785;SDS011;47474;48.824;9.384;2023-08-12T13:58:16;7.07;;;4.88;;
13785;SDS011;47474;48.824;9.384;2023-08-12T14:00:43;5.40;;;4.35;;
13785;SDS011;47474;48.824;9.384;2023-08-12T14:03:11;5.28;;;4.47;;
13785;SDS011;47474;48.824;9.384;2023-08-12T14:05:38;4.97;;;4.32;;
13785;SDS011;47474;48.824;9.384;2023-08-12T14:08:05;4.95;;;4.35;;
13785;SDS011;47474;48.824;9.384;2023-08-12T14:10:32;4.97;;;4.47;;
13785;SDS011;47474;48.824;9.384;2023-08-12T14:12:58;5.40;;;4.55;;
13785;SDS011;47474;48.824;9.384;2023-08-12T14:15:29;5.13;;;4.65;;
13785;SDS011;47474;48.824;9.384;2023-08-12T14:17:56;5.72;;;4.50;;
13785;SDS011;47474;48.824;9.384;2023-08-12T14:20:24;5.03;;;4.63;;
13785;SDS011;47474;48.824;9.384;2023-08-12T14:22:50;6.70;;;5.30;;
13785;SDS011;47474;48.824;9.384;2023-08-12T14:25:17;6.22;;;4.95;;
13785;SDS011;47474;48.824;9.384;2023-08-12T14:27:44;5.20;;;4.75;;
13785;SDS011;47474;48.824;9.384;2023-08-12T14:30:13;7.05;;;4.60;;
13785;SDS011;47474;48.824;9.384;2023-08-12T14:32:44;6.22;;;4.60;;
13785;SDS011;47474;48.824;9.384;2023-08-12T14:35:10;4.30;;;3.90;;
13785;SDS011;47474;48.824;9.384;2023-08-12T14:37:39;6.10;;;4.68;;
13785;SDS011;47474;48.824;9.384;2023-08-12T14:40:06;6.38;;;4.72;;
13785;SDS011;47474;48.824;9.384;2023-08-12T14:42:34;5.28;;;4.45;;
13785;SDS011;47474;48.824;9.384;2023-08-12T14:45:02;5.68;;;4.35;;
13785;SDS011;47474;48.824;9.384;2023-08-12T14:47:29;6.40;;;4.88;;
13785;SDS011;47474;48.824;9.384;2023-08-12T14:49:56;5.25;;;4.50;;
13785;SDS011;47474;48.824;9.384;2023-08-12T14:52:23;5.57;;;4.28;;
13785;SDS011;47474;48.824;9.384;2023-08-12T14:54:51;5.50;;;4.40;;
13785;SDS011;47474;48.824;9.384;2023-08-12T14:57:18;3.97;;;3.67;;
13785;SDS011;47474;48.824;9.384;2023-08-12T14:59:44;6.03;;;4.20;;
13785;SDS011;47474;48.824;9.384;2023-08-12T15:02:15;6.60;;;4.00;;
13785;SDS011;47474;48.824;9.384;2023-08-12T15:04:54;4.10;;;3.70;;
13785;SDS011;47474;48.824;9.384;2023-08-12T15:07:40;5.80;;;3.97;;
13785;SDS011;47474;48.824;9.384;2023-08-12T15:10:17;4.38;;;3.58;;
13785;SDS011;47474;48.824;9.384;2023-08-12T15:13:00;4.95;;;3.85;;
13785;SDS011;47474;48.824;9.384;2023-08-12T15:15:33;5.72;;;3.60;;
13785;SDS011;47474;48.824;9.384;2023-08-12T15:18:10;4.22;;;3.38;;
13785;SDS011;47474;48.824;9.384;2023-08-12T15:20:39;5.90;;;3.50;;
13785;SDS011;47474;48.824;9.384;2023-08-12T15:23:06;3.90;;;3.03;;
13785;SDS011;47474;48.824;9.384;2023-08-12T15:25:42;5.03;;;3.17;;
13785;SDS011;47474;48.824;9.384;2023-08-12T15:28:29;4.68;;;2.78;;
13785;SDS011;47474;48.824;9.384;2023-08-12T15:31:03;4.75;;;2.75;;
13785;SDS011;47474;48.824;9.384;2023-08-12T15:33:39;6.13;;;2.53;;
13785;SDS011;47474;48.824;9.384;2023-08-12T15:36:09;4.60;;;2.35;;
13785;SDS011;47474;48.824;9.384;2023-08-12T15:38:36;3.55;;;2.40;;
13785;SDS011;47474;48.824;9.384;2023-08-12T15:41:13;3.72;;;2.85;;
13785;SDS011;47474;48.824;9.384;2023-08-12T15:43:42;2.33;;;2.13;;
13785;SDS011;47474;48.824;9.384;2023-08-12T15:46:09;2.72;;;2.53;;
13785;SDS011;47474;48.824;9.384;2023-08-12T15:48:37;2.65;;;2.22;;
13785;SDS011;47474;48.824;9.384;2023-08-12T15:51:17;3.45;;;2.47;;
13785;SDS011;47474;48.824;9.384;2023-08-12T15:53:53;2.90;;;2.00;;
13785;SDS011;47474;48.824;9.384;2023-08-12T15:56:31;2.33;;;2.10;;
13785;SDS011;47474;48.824;9.384;2023-08-12T15:59:13;2.75;;;2.38;;
13785;SDS011;47474;48.824;9.384;2023-08-12T16:02:21;3.28;;;2.50;;
13785;SDS011;47474;48.824;9.384;2023-08-12T16:04:59;3.28;;;2.60;;
13785;SDS011;47474;48.824;9.384;2023-08-12T16:07:35;2.83;;;2.50;;
13785;SDS011;47474;48.824;9.384;2023-08-12T16:10:12;2.33;;;2.13;;
13785;SDS011;47474;48.824;9.384;2023-08-12T16:13:24;3.63;;;2.95;;
13785;SDS011;47474;48.824;9.384;2023-08-12T16:16:15;3.42;;;3.10;;
13785;SDS011;47474;48.824;9.384;2023-08-12T16:18:42;5.15;;;3.00;;
13785;SDS011;47474;48.824;9.384;2023-08-12T16:21:23;3.40;;;3.00;;
13785;SDS011;47474;48.824;9.384;2023-08-12T16:24:10;7.35;;;2.80;;
13785;SDS011;47474;48.824;9.384;2023-08-12T16:26:58;3.53;;;2.80;;
13785;SDS011;47474;48.824;9.384;2023-08-12T16:29:34;3.40;;;3.03;;
13785;SDS011;47474;48.824;9.384;2023-08-12T16:32:09;3.85;;;2.60;;
13785;SDS011;47474;48.824;9.384;2023-08-12T16:34:46;5.20;;;2.70;;
13785;SDS011;47474;48.824;9.384;2023-08-12T16:37:16;3.75;;;2.92;;
13785;SDS011;47474;48.824;9.384;2023-08-12T16:39:43;5.50;;;3.30;;
13785;SDS011;47474;48.824;9.384;2023-08-12T16:42:12;5.68;;;2.90;;
13785;SDS011;47474;48.824;9.384;2023-08-12T16:44:41;4.97;;;2.92;;
13785;SDS011;47474;48.824;9.384;2023-08-12T16:47:09;12.23;;;5.75;;
13785;SDS011;47474;48.824;9.384;2023-08-12T16:49:35;7.40;;;4.63;;
13785;SDS011;47474;48.824;9.384;2023-08-12T16:52:02;6.22;;;5.30;;
13785;SDS011;47474;48.824;9.384;2023-08-12T16:54:29;4.65;;;4.20;;
13785;SDS011;47474;48.824;9.384;2023-08-12T16:56:56;5.03;;;4.25;;
13785;SDS011;47474;48.824;9.384;2023-08-12T16:59:24;6.47;;;5.05;;
13785;SDS011;47474;48.824;9.384;2023-08-12T17:01:52;8.75;;;5.55;;
13785;SDS011;47474;48.824;9.384;2023-08-12T17:04:19;5.25;;;4.60;;
13785;SDS011;47474;48.824;9.384;2023-08-12T17:06:45;5.55;;;5.07;;
13785;SDS011;47474;48.824;9.384;2023-08-12T17:09:12;5.60;;;5.10;;
13785;SDS011;47474;48.824;9.384;2023-08-12T17:11:39;5.78;;;5.10;;
13785;SDS011;47474;48.824;9.384;2023-08-12T17:14:05;4.93;;;4.53;;
13785;SDS011;47474;48.824;9.384;2023-08-12T17:16:34;5.80;;;4.90;;
13785;SDS011;47474;48.824;9.384;2023-08-12T17:19:24;6.13;;;4.75;;
13785;SDS011;47474;48.824;9.384;2023-08-12T17:21:51;5.70;;;5.13;;
13785;SDS011;47474;48.824;9.384;2023-08-12T17:24:17;7.78;;;5.38;;
13785;SDS011;47474;48.824;9.384;2023-08-12T17:26:44;6.13;;;5.53;;
13785;SDS011;47474;48.824;9.384;2023-08-12T17:29:11;5.97;;;5.28;;
13785;SDS011;47474;48.824;9.384;2023-08-12T17:31:37;6.00;;;5.45;;
13785;SDS011;47474;48.824;9.384;2023-08-12T17:34:04;7.30;;;5.88;;
13785;SDS011;47474;48.824;9.384;2023-08-12T17:36:32;6.95;;;6.20;;
13785;SDS011;47474;48.824;9.384;2023-08-12T17:38:59;7.68;;;6.88;;
13785;SDS011;47474;48.824;9.384;2023-08-12T17:41:25;7.40;;;6.70;;
13785;SDS011;47474;48.824;9.384;2023-08-12T17:43:52;7.22;;;6.13;;
13785;SDS011;47474;48.824;9.384;2023-08-12T17:46:19;6.60;;;6.03;;
13785;SDS011;47474;48.824;9.384;2023-08-12T17:48:46;7.13;;;5.32;;
13785;SDS011;47474;48.824;9.384;2023-08-12T17:51:14;4.90;;;4.50;;
13785;SDS011;47474;48.824;9.384;2023-08-12T17:53:42;5.85;;;5.35;;